createdAt,value
2022-12-14T00:01:52.254Z,99427.78
2022-12-14T00:04:20.570Z,99425.22
2022-12-14T00:06:47.771Z,99424.44
2022-12-14T00:09:15.141Z,99417.50
2022-12-14T00:11:42.372Z,99406.28
2022-12-14T00:14:09.517Z,99415.66
2022-12-14T00:16:36.920Z,99408.97
2022-12-14T00:19:05.614Z,99407.69
2022-12-14T00:21:33.880Z,99406.66
2022-12-14T00:24:01.266Z,99400.94
2022-12-14T00:26:32.726Z,99395.28
2022-12-14T00:29:02.058Z,99390.38
2022-12-14T00:31:32.528Z,99384.69
2022-12-14T00:34:01.149Z,99393.94
2022-12-14T00:36:31.459Z,99394.75
2022-12-14T00:38:59.621Z,99392.41
2022-12-14T00:41:26.905Z,99388.75
2022-12-14T00:43:54.073Z,99381.56
2022-12-14T00:46:21.277Z,99387.25
2022-12-14T00:48:48.531Z,99380.19
2022-12-14T00:51:15.786Z,99371.56
2022-12-14T00:53:44.962Z,99362.28
2022-12-14T00:56:12.812Z,99378.22
2022-12-14T00:58:40.372Z,99370.63
2022-12-14T01:01:14.626Z,99374.31
2022-12-14T01:03:42.426Z,99362.53
2022-12-14T01:06:22.980Z,99374.13
2022-12-14T01:08:50.522Z,99385.88
2022-12-14T01:11:17.831Z,99379.47
2022-12-14T01:13:45.112Z,99377.03
2022-12-14T01:16:17.197Z,99370.03
2022-12-14T01:18:44.415Z,99376.78
2022-12-14T01:21:24.215Z,99371.63
2022-12-14T01:24:03.825Z,99365.81
2022-12-14T01:26:35.777Z,99362.91
2022-12-14T01:29:04.529Z,99367.06
2022-12-14T01:31:36.699Z,99369.53
2022-12-14T01:34:05.532Z,99363.47
2022-12-14T01:36:35.298Z,99369.78
2022-12-14T01:39:13.719Z,99370.00
2022-12-14T01:41:52.845Z,99366.53
2022-12-14T01:44:19.839Z,99353.78
2022-12-14T01:47:05.106Z,99361.19
2022-12-14T01:50:30.461Z,99355.28
2022-12-14T01:53:10.497Z,99354.47
2022-12-14T01:55:45.260Z,99354.38
2022-12-14T01:58:25.630Z,99351.66
2022-12-14T02:01:00.103Z,99354.00
2022-12-14T02:03:36.924Z,99350.41
2022-12-14T02:06:21.083Z,99344.25
2022-12-14T02:08:51.130Z,99344.25
2022-12-14T02:11:56.990Z,99345.50
2022-12-14T02:14:24.832Z,99335.75
2022-12-14T02:16:55.888Z,99333.16
2022-12-14T02:19:23.321Z,99329.56
2022-12-14T02:22:31.368Z,99322.84
2022-12-14T02:26:04.142Z,99321.81
2022-12-14T02:29:17.805Z,99318.50
2022-12-14T02:32:37.688Z,99311.75
2022-12-14T02:35:37.351Z,99302.38
2022-12-14T02:38:42.180Z,99300.69
2022-12-14T02:41:19.137Z,99292.19
2022-12-14T02:44:29.185Z,99288.59
2022-12-14T02:47:40.487Z,99276.50
2022-12-14T02:50:32.034Z,99269.25
2022-12-14T02:53:31.965Z,99257.78
2022-12-14T02:56:07.471Z,99265.34
2022-12-14T02:58:50.662Z,99251.19
2022-12-14T03:01:27.887Z,99248.16
2022-12-14T03:03:55.725Z,99248.97
2022-12-14T03:06:28.107Z,99246.06
2022-12-14T03:09:14.820Z,99249.09
2022-12-14T03:12:10.673Z,99243.59
2022-12-14T03:14:47.781Z,99246.72
2022-12-14T03:17:22.193Z,99240.00
2022-12-14T03:20:14.738Z,99236.31
2022-12-14T03:23:12.355Z,99228.34
2022-12-14T03:26:20.109Z,99227.44
2022-12-14T03:28:55.057Z,99227.31
2022-12-14T03:31:43.535Z,99227.88
2022-12-14T03:34:22.397Z,99220.69
2022-12-14T03:37:18.481Z,99208.38
2022-12-14T03:39:47.427Z,99212.34
2022-12-14T03:42:40.875Z,99209.31
2022-12-14T03:45:40.186Z,99218.97
2022-12-14T03:48:50.087Z,99214.47
2022-12-14T03:51:37.596Z,99215.03
2022-12-14T03:54:16.154Z,99210.44
2022-12-14T03:56:53.245Z,99190.69
2022-12-14T03:59:40.670Z,99197.00
2022-12-14T04:02:42.613Z,99190.47
2022-12-14T04:05:37.985Z,99202.88
2022-12-14T04:09:18.147Z,99191.81
2022-12-14T04:12:19.951Z,99189.53
2022-12-14T04:15:25.889Z,99191.13
2022-12-14T04:18:18.391Z,99189.44
2022-12-14T04:20:57.111Z,99175.69
2022-12-14T04:23:58.303Z,99182.81
2022-12-14T04:26:34.061Z,99177.19
2022-12-14T04:29:31.139Z,99185.03
2022-12-14T04:32:37.208Z,99181.91
2022-12-14T04:35:47.615Z,99180.88
2022-12-14T04:38:23.056Z,99169.81
2022-12-14T04:40:59.080Z,99172.41
2022-12-14T04:43:35.544Z,99173.13
2022-12-14T04:46:22.426Z,99172.22
2022-12-14T04:49:20.236Z,99161.94
2022-12-14T04:52:16.662Z,99156.53
2022-12-14T04:55:03.616Z,99163.75
2022-12-14T04:58:02.842Z,99151.88
2022-12-14T05:00:36.217Z,99141.69
2022-12-14T05:03:17.029Z,99146.72
2022-12-14T05:06:21.698Z,99137.78
2022-12-14T05:09:29.988Z,99127.34
2022-12-14T05:12:07.701Z,99125.66
2022-12-14T05:15:06.201Z,99132.53
2022-12-14T05:17:38.693Z,99138.75
2022-12-14T05:20:14.696Z,99143.38
2022-12-14T05:22:42.511Z,99144.69
2022-12-14T05:25:09.819Z,99148.81
2022-12-14T05:27:37.189Z,99154.75
2022-12-14T05:30:06.647Z,99148.53
2022-12-14T05:32:34.367Z,99146.72
2022-12-14T05:35:03.870Z,99139.31
2022-12-14T05:37:31.188Z,99144.81
2022-12-14T05:39:58.485Z,99143.31
2022-12-14T05:42:25.796Z,99137.88
2022-12-14T05:44:52.950Z,99136.75
2022-12-14T05:47:20.058Z,99133.03
2022-12-14T05:49:49.298Z,99123.28
2022-12-14T05:52:17.537Z,99122.63
2022-12-14T05:54:44.760Z,99131.00
2022-12-14T05:57:12.951Z,99127.41
2022-12-14T05:59:40.178Z,99129.22
2022-12-14T06:02:07.766Z,99127.66
2022-12-14T06:04:35.368Z,99134.63
2022-12-14T06:07:02.760Z,99137.81
2022-12-14T06:09:29.944Z,99132.91
2022-12-14T06:11:57.072Z,99136.41
2022-12-14T06:14:25.304Z,99142.97
2022-12-14T06:16:52.851Z,99147.38
2022-12-14T06:19:20.393Z,99145.66
2022-12-14T06:21:47.718Z,99143.09
2022-12-14T06:24:15.358Z,99137.19
2022-12-14T06:26:42.845Z,99120.94
2022-12-14T06:29:19.975Z,99119.06
2022-12-14T06:31:49.431Z,99123.19
2022-12-14T06:34:18.884Z,99123.19
2022-12-14T06:36:47.062Z,99122.97
2022-12-14T06:39:16.959Z,99125.13
2022-12-14T06:41:49.078Z,99129.72
2022-12-14T06:44:16.947Z,99132.66
2022-12-14T06:46:44.785Z,99140.81
2022-12-14T06:49:15.423Z,99137.88
2022-12-14T06:51:44.288Z,99143.91
2022-12-14T06:54:13.503Z,99143.38
2022-12-14T06:56:42.920Z,99146.47
2022-12-14T06:59:11.583Z,99154.75
2022-12-14T07:01:40.777Z,99154.75
2022-12-14T07:04:09.684Z,99155.00
2022-12-14T07:06:42.531Z,99156.78
2022-12-14T07:09:14.527Z,99155.47
2022-12-14T07:11:42.081Z,99143.63
2022-12-14T07:14:17.529Z,99130.75
2022-12-14T07:16:48.331Z,99134.88
2022-12-14T07:19:17.676Z,99130.28
2022-12-14T07:21:45.026Z,99125.00
2022-12-14T07:24:12.330Z,99126.78
2022-12-14T07:26:39.555Z,99127.06
2022-12-14T07:29:06.792Z,99142.63
2022-12-14T07:31:34.146Z,99159.19
2022-12-14T07:34:02.530Z,99154.53
2022-12-14T07:36:30.621Z,99155.13
2022-12-14T07:38:58.030Z,99166.56
2022-12-14T07:41:31.052Z,99167.53
2022-12-14T07:44:00.905Z,99175.28
2022-12-14T07:46:30.671Z,99187.25
2022-12-14T07:49:02.345Z,99187.03
2022-12-14T07:51:37.481Z,99180.50
2022-12-14T07:54:07.023Z,99178.28
2022-12-14T07:56:40.419Z,99177.97
2022-12-14T07:59:15.162Z,99167.13
2022-12-14T08:01:43.736Z,99173.41
2022-12-14T08:04:18.375Z,99178.06
2022-12-14T08:06:47.779Z,99174.41
2022-12-14T08:09:17.363Z,99168.81
2022-12-14T08:11:44.867Z,99168.25
2022-12-14T08:14:19.011Z,99171.84
2022-12-14T08:16:49.223Z,99174.31
2022-12-14T08:19:19.543Z,99190.47
2022-12-14T08:21:47.316Z,99197.09
2022-12-14T08:24:16.888Z,99201.44
2022-12-14T08:26:47.270Z,99199.50
2022-12-14T08:29:17.513Z,99186.22
2022-12-14T08:31:44.875Z,99186.78
2022-12-14T08:34:12.268Z,99185.44
2022-12-14T08:36:41.984Z,99182.44
2022-12-14T08:39:10.988Z,99176.97
2022-12-14T08:41:38.231Z,99184.25
2022-12-14T08:44:06.214Z,99185.84
2022-12-14T08:46:37.681Z,99175.28
2022-12-14T08:49:05.069Z,99189.44
2022-12-14T08:51:32.594Z,99188.63
2022-12-14T08:54:00.888Z,99197.03
2022-12-14T08:56:29.185Z,99199.63
2022-12-14T08:58:57.504Z,99199.66
2022-12-14T09:01:34.108Z,99206.78
2022-12-14T09:04:08.511Z,99213.66
2022-12-14T09:06:39.485Z,99207.94
2022-12-14T09:09:15.599Z,99214.09
2022-12-14T09:11:45.466Z,99211.06
2022-12-14T09:14:13.016Z,99205.91
2022-12-14T09:16:40.889Z,99208.16
2022-12-14T09:19:08.412Z,99218.38
2022-12-14T09:21:35.722Z,99197.94
2022-12-14T09:24:03.204Z,99199.50
2022-12-14T09:26:30.487Z,99202.84
2022-12-14T09:28:58.362Z,99208.44
2022-12-14T09:31:28.369Z,99216.78
2022-12-14T09:33:56.901Z,99210.81
2022-12-14T09:36:28.138Z,99209.75
2022-12-14T09:38:57.389Z,99223.44
2022-12-14T09:41:33.940Z,99214.66
2022-12-14T09:44:25.785Z,99199.16
2022-12-14T09:47:51.525Z,99200.41
2022-12-14T09:50:22.854Z,99193.94
2022-12-14T09:53:06.158Z,99183.63
2022-12-14T09:55:43.636Z,99175.34
2022-12-14T09:58:25.659Z,99178.63
2022-12-14T10:01:23.743Z,99175.56
2022-12-14T10:04:17.402Z,99174.91
2022-12-14T10:07:06.564Z,99168.09
2022-12-14T10:10:00.817Z,99164.75
2022-12-14T10:12:33.951Z,99162.22
2022-12-14T10:15:29.297Z,99157.97
2022-12-14T10:21:28.257Z,99159.97
2022-12-14T10:24:15.993Z,99153.78
2022-12-14T10:26:52.762Z,99140.13
2022-12-14T10:29:37.779Z,99145.81
2022-12-14T10:32:39.935Z,99135.78
2022-12-14T10:35:22.925Z,99122.44
2022-12-14T10:38:06.373Z,99118.09
2022-12-14T10:40:35.395Z,99117.38
2022-12-14T10:43:26.547Z,99112.44
2022-12-14T10:46:22.886Z,99102.00
2022-12-14T10:49:50.849Z,99100.72
2022-12-14T10:52:23.743Z,99104.56
2022-12-14T10:55:02.484Z,99098.69
2022-12-14T10:57:29.808Z,99091.66
2022-12-14T11:00:08.359Z,99079.75
2022-12-14T11:02:43.580Z,99071.59
2022-12-14T11:05:37.948Z,99078.34
2022-12-14T11:08:07.673Z,99064.75
2022-12-14T11:10:39.547Z,99064.03
2022-12-14T11:13:09.442Z,99058.66
2022-12-14T11:15:49.536Z,99062.84
2022-12-14T11:18:16.649Z,99061.34
2022-12-14T11:21:02.141Z,99044.53
2022-12-14T11:23:38.989Z,99051.63
2022-12-14T11:26:40.765Z,99044.34
2022-12-14T11:29:22.044Z,99043.06
2022-12-14T11:31:53.800Z,99041.56
2022-12-14T11:34:35.880Z,99043.97
2022-12-14T11:37:29.941Z,99054.19
2022-12-14T11:40:05.745Z,99039.97
2022-12-14T11:42:33.979Z,99044.63
2022-12-14T11:45:26.008Z,99040.69
2022-12-14T11:48:22.545Z,99039.69
2022-12-14T11:50:53.004Z,99042.25
2022-12-14T11:53:22.984Z,99025.88
2022-12-14T11:55:58.152Z,99029.44
2022-12-14T11:58:34.654Z,99028.09
2022-12-14T12:01:26.048Z,99019.97
2022-12-14T12:03:58.489Z,99021.00
2022-12-14T12:06:29.400Z,99020.53
2022-12-14T12:09:00.981Z,99015.88
2022-12-14T12:11:33.774Z,99015.88
2022-12-14T12:14:33.758Z,99008.94
2022-12-14T12:17:01.379Z,99010.22
2022-12-14T12:19:37.183Z,99005.25
2022-12-14T12:22:09.246Z,98994.88
2022-12-14T12:25:25.680Z,99005.94
2022-12-14T12:28:06.613Z,99000.63
2022-12-14T12:30:40.304Z,99005.34
2022-12-14T12:33:41.717Z,98998.50
2022-12-14T12:36:10.050Z,98981.66
2022-12-14T12:39:06.530Z,98998.88
2022-12-14T12:42:22.508Z,98994.16
2022-12-14T12:45:20.513Z,98986.09
2022-12-14T12:48:05.797Z,98982.81
2022-12-14T12:50:42.120Z,98995.53
2022-12-14T12:53:30.263Z,98992.94
2022-12-14T12:56:25.164Z,98991.72
2022-12-14T12:58:53.708Z,98982.75
2022-12-14T13:01:31.787Z,98977.19
2022-12-14T13:04:05.039Z,98987.13
2022-12-14T13:06:49.933Z,98994.78
2022-12-14T13:09:43.277Z,98985.63
2022-12-14T13:12:47.926Z,98976.19
2022-12-14T13:15:41.017Z,98985.44
2022-12-14T13:18:59.511Z,98972.97
2022-12-14T13:21:36.302Z,98976.84
2022-12-14T13:24:06.675Z,98977.78
2022-12-14T13:27:35.310Z,98996.59
2022-12-14T13:30:22.620Z,98999.09
2022-12-14T13:33:17.372Z,98993.28
2022-12-14T13:36:40.804Z,98986.06
2022-12-14T13:39:10.926Z,98979.06
2022-12-14T13:42:12.883Z,98973.03
2022-12-14T13:45:03.787Z,98966.13
2022-12-14T13:47:41.455Z,98954.34
2022-12-14T13:50:37.176Z,98947.66
2022-12-14T13:53:18.661Z,98954.97
2022-12-14T13:55:58.375Z,98954.63
2022-12-14T13:58:42.651Z,98940.75
2022-12-14T14:01:33.644Z,98962.91
2022-12-14T14:04:22.403Z,98981.66
2022-12-14T14:06:55.834Z,98989.03
2022-12-14T14:10:01.163Z,98997.47
2022-12-14T14:12:44.823Z,99001.34
2022-12-14T14:15:38.190Z,99004.72
2022-12-14T14:18:20.207Z,98992.00
2022-12-14T14:21:12.846Z,98973.97
2022-12-14T14:24:20.160Z,98967.91
2022-12-14T14:27:19.409Z,98970.50
2022-12-14T14:29:51.788Z,98970.81
2022-12-14T14:32:40.261Z,98964.66
2022-12-14T14:35:34.786Z,98960.28
2022-12-14T14:38:31.550Z,98950.03
2022-12-14T14:41:18.409Z,98954.41
2022-12-14T14:44:04.624Z,98947.09
2022-12-14T14:46:40.663Z,98938.31
2022-12-14T14:49:29.095Z,98931.38
2022-12-14T14:51:56.999Z,98934.75
2022-12-14T14:58:39.025Z,98933.09
2022-12-14T15:01:06.532Z,98927.56
2022-12-14T15:04:02.092Z,98922.88
2022-12-14T15:06:37.498Z,98923.28
2022-12-14T15:09:08.837Z,98910.91
2022-12-14T15:11:54.538Z,98907.81
2022-12-14T15:14:48.813Z,98911.50
2022-12-14T15:17:21.710Z,98912.63
2022-12-14T15:19:52.956Z,98916.88
2022-12-14T15:22:24.940Z,98914.63
2022-12-14T15:24:56.549Z,98921.34
2022-12-14T15:27:36.232Z,98915.59
2022-12-14T15:30:12.612Z,98917.97
2022-12-14T15:32:47.641Z,98915.75
2022-12-14T15:35:24.151Z,98917.38
2022-12-14T15:38:00.196Z,98911.22
2022-12-14T15:40:30.784Z,98919.34
2022-12-14T15:43:17.029Z,98918.97
2022-12-14T15:45:51.654Z,98928.72
2022-12-14T15:48:24.840Z,98924.91
2022-12-14T15:51:11.660Z,98925.53
2022-12-14T15:53:53.553Z,98938.44
2022-12-14T15:56:45.282Z,98931.03
2022-12-14T15:59:33.933Z,98941.16
2022-12-14T16:02:29.091Z,98938.78
2022-12-14T16:05:00.735Z,98934.66
2022-12-14T16:07:41.341Z,98931.69
2022-12-14T16:10:33.035Z,98933.31
2022-12-14T16:13:24.328Z,98942.59
2022-12-14T16:15:52.810Z,98940.53
2022-12-14T16:18:20.614Z,98939.06
2022-12-14T16:20:59.733Z,98944.19
2022-12-14T16:23:37.932Z,98948.69
2022-12-14T16:26:15.192Z,98952.03
2022-12-14T16:28:42.935Z,98952.25
2022-12-14T16:31:24.343Z,98940.97
2022-12-14T16:34:20.297Z,98944.03
2022-12-14T16:37:22.808Z,98938.94
2022-12-14T16:39:47.645Z,98934.22
2022-12-14T16:42:27.087Z,98936.97
2022-12-14T16:44:54.678Z,98931.44
2022-12-14T16:47:35.266Z,98932.22
2022-12-14T16:50:02.466Z,98937.75
2022-12-14T16:52:38.002Z,98937.88
2022-12-14T16:55:12.215Z,98940.44
2022-12-14T16:57:48.427Z,98945.59
2022-12-14T17:00:32.461Z,98946.03
2022-12-14T17:03:08.204Z,98946.03
2022-12-14T17:05:41.792Z,98945.91
2022-12-14T17:08:11.556Z,98947.69
2022-12-14T17:10:39.150Z,98952.84
2022-12-14T17:13:06.421Z,98959.34
2022-12-14T17:15:35.082Z,98951.19
2022-12-14T17:18:04.682Z,98956.94
2022-12-14T17:20:39.342Z,98963.75
2022-12-14T17:23:15.145Z,98956.13
2022-12-14T17:25:46.288Z,98962.94
2022-12-14T17:28:31.030Z,98959.72
2022-12-14T17:31:01.650Z,98961.97
2022-12-14T17:33:31.704Z,98966.44
2022-12-14T17:35:59.459Z,98967.59
2022-12-14T17:38:26.702Z,98975.41
2022-12-14T17:40:54.406Z,98978.56
2022-12-14T17:43:27.782Z,98974.53
2022-12-14T17:45:55.521Z,98973.53
2022-12-14T17:48:22.817Z,98971.97
2022-12-14T17:50:51.226Z,98983.94
2022-12-14T17:53:30.191Z,98981.25
2022-12-14T17:55:58.663Z,98980.81
2022-12-14T17:58:25.982Z,98974.75
2022-12-14T18:01:03.279Z,98981.69
2022-12-14T18:03:36.757Z,98981.25
2022-12-14T18:06:04.817Z,98987.78
2022-12-14T18:08:32.101Z,98998.06
2022-12-14T18:11:11.759Z,98997.19
2022-12-14T18:13:42.119Z,98990.94
2022-12-14T18:16:20.968Z,99004.13
2022-12-14T18:18:49.238Z,99000.78
2022-12-14T18:21:23.194Z,98999.22
2022-12-14T18:23:50.842Z,98997.09
2022-12-14T18:26:22.064Z,99001.13
2022-12-14T18:28:52.047Z,99000.31
2022-12-14T18:31:32.456Z,98989.81
2022-12-14T18:33:59.759Z,98992.50
2022-12-14T18:36:27.245Z,98996.44
2022-12-14T18:38:54.836Z,98998.66
2022-12-14T18:41:25.682Z,98999.88
2022-12-14T18:43:54.330Z,99008.38
2022-12-14T18:46:22.059Z,99004.56
2022-12-14T18:48:49.693Z,99006.44
2022-12-14T18:51:23.608Z,99008.44
2022-12-14T18:53:55.056Z,99009.69
2022-12-14T18:56:25.311Z,99009.41
2022-12-14T18:58:52.787Z,99006.47
2022-12-14T19:01:24.778Z,99007.16
2022-12-14T19:03:52.364Z,99007.13
2022-12-14T19:09:14.207Z,99009.09
2022-12-14T19:11:42.392Z,99007.50
2022-12-14T19:14:10.657Z,99019.91
2022-12-14T19:16:37.997Z,99021.59
2022-12-14T19:19:05.349Z,99021.03
2022-12-14T19:21:32.542Z,99027.25
2022-12-14T19:24:00.058Z,99031.16
2022-12-14T19:26:28.937Z,99029.81
2022-12-14T19:28:56.504Z,99032.38
2022-12-14T19:31:23.762Z,99028.09
2022-12-14T19:33:51.044Z,99025.94
2022-12-14T19:36:18.314Z,99013.56
2022-12-14T19:38:49.175Z,99011.69
2022-12-14T19:41:20.417Z,99012.06
2022-12-14T19:43:48.124Z,99012.81
2022-12-14T19:46:17.574Z,99014.34
2022-12-14T19:48:45.297Z,99022.41
2022-12-14T19:51:14.202Z,99015.63
2022-12-14T19:53:45.326Z,99025.22
2022-12-14T19:56:17.451Z,99033.97
2022-12-14T19:58:45.968Z,99024.88
2022-12-14T20:01:16.664Z,99030.44
2022-12-14T20:03:44.369Z,99025.28
2022-12-14T20:06:11.731Z,99035.94
2022-12-14T20:08:38.977Z,99025.56
2022-12-14T20:11:09.768Z,99030.19
2022-12-14T20:13:37.792Z,99023.25
2022-12-14T20:16:05.945Z,99019.44
2022-12-14T20:18:33.561Z,99025.75
2022-12-14T20:21:08.658Z,99021.66
2022-12-14T20:23:38.610Z,99020.19
2022-12-14T20:26:18.748Z,99013.22
2022-12-14T20:28:53.125Z,99017.63
2022-12-14T20:31:22.260Z,99015.81
2022-12-14T20:33:50.285Z,99017.50
2022-12-14T20:36:18.821Z,99029.47
2022-12-14T20:38:49.335Z,99028.25
2022-12-14T20:41:18.312Z,99025.31
2022-12-14T20:43:45.932Z,99015.97
2022-12-14T20:46:40.562Z,99011.13
2022-12-14T20:49:16.379Z,99016.66
2022-12-14T20:51:46.572Z,99012.84
2022-12-14T20:54:17.957Z,99011.19
2022-12-14T20:56:49.441Z,99010.69
2022-12-14T20:59:17.521Z,99007.97
2022-12-14T21:01:51.777Z,99005.00
2022-12-14T21:04:20.993Z,99014.88
2022-12-14T21:06:48.645Z,99012.00
2022-12-14T21:09:16.028Z,99008.81
2022-12-14T21:12:06.158Z,99008.06
2022-12-14T21:14:44.628Z,99001.63
2022-12-14T21:17:11.838Z,99009.56
2022-12-14T21:19:40.164Z,99011.69
2022-12-14T21:22:14.024Z,99004.22
2022-12-14T21:27:32.302Z,99005.50
2022-12-14T21:30:00.949Z,99010.34
2022-12-14T21:32:28.391Z,99009.44
2022-12-14T21:34:55.659Z,99007.03
2022-12-14T21:37:23.611Z,99009.91
2022-12-14T21:39:55.140Z,99010.69
2022-12-14T21:42:24.557Z,99020.72
2022-12-14T21:44:54.221Z,99018.69
2022-12-14T21:47:28.354Z,99019.44
2022-12-14T21:49:56.399Z,99018.53
2022-12-14T21:52:27.653Z,99011.06
2022-12-14T21:54:55.081Z,99020.91
2022-12-14T21:57:49.983Z,99015.03
2022-12-14T22:00:19.608Z,99010.91
2022-12-14T22:02:46.885Z,99026.69
2022-12-14T22:05:14.183Z,99023.72
2022-12-14T22:07:41.828Z,99022.25
2022-12-14T22:10:09.091Z,99018.84
2022-12-14T22:12:36.312Z,99021.94
2022-12-14T22:15:03.945Z,99031.72
2022-12-14T22:17:31.126Z,99036.59
2022-12-14T22:19:59.360Z,99037.00
2022-12-14T22:22:26.548Z,99036.00
2022-12-14T22:24:53.705Z,99034.84
2022-12-14T22:27:21.199Z,99033.31
2022-12-14T22:29:48.432Z,99053.09
2022-12-14T22:32:15.764Z,99050.50
2022-12-14T22:34:43.138Z,99057.78
2022-12-14T22:37:16.743Z,99057.13
2022-12-14T22:39:44.236Z,99070.09
2022-12-14T22:42:16.019Z,99075.63
2022-12-14T22:44:43.678Z,99067.66
2022-12-14T22:47:11.289Z,99070.72
2022-12-14T22:49:38.519Z,99067.16
2022-12-14T22:52:05.777Z,99069.50
2022-12-14T22:54:32.957Z,99073.88
2022-12-14T22:57:11.205Z,99069.09
2022-12-14T23:00:00.086Z,99071.03
2022-12-14T23:02:30.033Z,99077.44
2022-12-14T23:04:57.561Z,99067.69
2022-12-14T23:07:24.861Z,99070.88
2022-12-14T23:10:10.533Z,99076.16
2022-12-14T23:12:56.633Z,99071.53
2022-12-14T23:15:42.110Z,99079.38
2022-12-14T23:18:28.105Z,99068.09
2022-12-14T23:21:15.053Z,99061.91
2022-12-14T23:24:04.441Z,99068.06
2022-12-14T23:26:51.936Z,99056.03
2022-12-14T23:29:38.024Z,99057.72
2022-12-14T23:32:23.918Z,99051.41
2022-12-14T23:35:09.933Z,99044.75
2022-12-14T23:37:55.599Z,99037.44
2022-12-14T23:40:41.481Z,99035.91
2022-12-14T23:43:36.636Z,99042.94
2022-12-14T23:46:24.211Z,99054.50
2022-12-14T23:49:15.379Z,99063.22
2022-12-14T23:52:02.115Z,99064.09
2022-12-14T23:54:47.747Z,99056.66
2022-12-14T23:57:34.580Z,99055.50
